sensor_id;sensor_type;location;lat;lon;timestamp;P1;durP1;ratioP1;P2;durP2;ratioP2
68680;SDS011;55836;49.858;6.756;2022-09-20T00:01:58;2.77;;;1.60;;
68680;SDS011;55836;49.858;6.756;2022-09-20T00:04:24;3.93;;;2.27;;
68680;SDS011;55836;49.858;6.756;2022-09-20T00:06:50;6.27;;;2.10;;
68680;SDS011;55836;49.858;6.756;2022-09-20T00:09:16;6.03;;;1.73;;
68680;SDS011;55836;49.858;6.756;2022-09-20T00:11:42;5.07;;;2.10;;
68680;SDS011;55836;49.858;6.756;2022-09-20T00:14:09;6.27;;;2.40;;
68680;SDS011;55836;49.858;6.756;2022-09-20T00:16:36;4.97;;;1.87;;
68680;SDS011;55836;49.858;6.756;2022-09-20T00:19:04;6.00;;;2.20;;
68680;SDS011;55836;49.858;6.756;2022-09-20T00:21:31;5.13;;;2.00;;
68680;SDS011;55836;49.858;6.756;2022-09-20T00:23:58;3.47;;;1.80;;
68680;SDS011;55836;49.858;6.756;2022-09-20T00:26:27;2.97;;;1.73;;
68680;SDS011;55836;49.858;6.756;2022-09-20T00:28:54;5.47;;;2.10;;
68680;SDS011;55836;49.858;6.756;2022-09-20T00:31:20;4.73;;;2.00;;
68680;SDS011;55836;49.858;6.756;2022-09-20T00:33:46;5.73;;;2.03;;
68680;SDS011;55836;49.858;6.756;2022-09-20T00:36:31;2.77;;;1.70;;
68680;SDS011;55836;49.858;6.756;2022-09-20T00:38:58;4.03;;;2.20;;
68680;SDS011;55836;49.858;6.756;2022-09-20T00:41:24;6.17;;;2.70;;
68680;SDS011;55836;49.858;6.756;2022-09-20T00:43:51;3.63;;;2.00;;
68680;SDS011;55836;49.858;6.756;2022-09-20T00:48:43;5.53;;;2.30;;
68680;SDS011;55836;49.858;6.756;2022-09-20T00:51:10;6.83;;;3.27;;
68680;SDS011;55836;49.858;6.756;2022-09-20T00:53:41;5.43;;;2.90;;
68680;SDS011;55836;49.858;6.756;2022-09-20T00:56:10;6.00;;;2.90;;
68680;SDS011;55836;49.858;6.756;2022-09-20T00:58:39;4.37;;;2.80;;
68680;SDS011;55836;49.858;6.756;2022-09-20T01:01:07;4.17;;;2.63;;
68680;SDS011;55836;49.858;6.756;2022-09-20T01:03:33;4.60;;;2.40;;
68680;SDS011;55836;49.858;6.756;2022-09-20T01:06:03;5.93;;;2.67;;
68680;SDS011;55836;49.858;6.756;2022-09-20T01:08:30;8.23;;;3.90;;
68680;SDS011;55836;49.858;6.756;2022-09-20T01:10:56;8.73;;;4.40;;
68680;SDS011;55836;49.858;6.756;2022-09-20T01:13:23;11.63;;;5.57;;
68680;SDS011;55836;49.858;6.756;2022-09-20T01:15:49;7.27;;;3.73;;
68680;SDS011;55836;49.858;6.756;2022-09-20T01:18:15;5.13;;;3.10;;
68680;SDS011;55836;49.858;6.756;2022-09-20T01:20:41;6.47;;;2.70;;
68680;SDS011;55836;49.858;6.756;2022-09-20T01:28:19;5.53;;;2.63;;
68680;SDS011;55836;49.858;6.756;2022-09-20T01:31:07;4.77;;;3.00;;
68680;SDS011;55836;49.858;6.756;2022-09-20T01:36:20;6.13;;;2.50;;
68680;SDS011;55836;49.858;6.756;2022-09-20T01:41:40;5.77;;;2.70;;
68680;SDS011;55836;49.858;6.756;2022-09-20T01:46:55;5.40;;;2.70;;
68680;SDS011;55836;49.858;6.756;2022-09-20T02:00:22;6.70;;;3.40;;
68680;SDS011;55836;49.858;6.756;2022-09-20T02:13:00;5.37;;;3.60;;
68680;SDS011;55836;49.858;6.756;2022-09-20T02:15:39;4.93;;;3.37;;
68680;SDS011;55836;49.858;6.756;2022-09-20T02:18:56;4.77;;;3.73;;
68680;SDS011;55836;49.858;6.756;2022-09-20T02:39:24;5.47;;;3.13;;
68680;SDS011;55836;49.858;6.756;2022-09-20T02:47:25;7.17;;;4.07;;
68680;SDS011;55836;49.858;6.756;2022-09-20T02:49:57;3.97;;;3.00;;
68680;SDS011;55836;49.858;6.756;2022-09-20T03:16:04;5.67;;;3.47;;
68680;SDS011;55836;49.858;6.756;2022-09-20T03:18:40;6.10;;;4.60;;
68680;SDS011;55836;49.858;6.756;2022-09-20T03:26:54;7.60;;;4.27;;
68680;SDS011;55836;49.858;6.756;2022-09-20T03:39:35;7.57;;;3.17;;
68680;SDS011;55836;49.858;6.756;2022-09-20T03:42:10;6.10;;;3.30;;
68680;SDS011;55836;49.858;6.756;2022-09-20T04:03:35;5.70;;;3.20;;
68680;SDS011;55836;49.858;6.756;2022-09-20T04:06:08;8.43;;;3.47;;
68680;SDS011;55836;49.858;6.756;2022-09-20T04:13:34;8.37;;;3.17;;
68680;SDS011;55836;49.858;6.756;2022-09-20T04:21:04;6.67;;;2.83;;
68680;SDS011;55836;49.858;6.756;2022-09-20T04:23:45;8.10;;;3.10;;
68680;SDS011;55836;49.858;6.756;2022-09-20T04:26:13;4.27;;;3.00;;
68680;SDS011;55836;49.858;6.756;2022-09-20T04:28:54;5.83;;;3.07;;
68680;SDS011;55836;49.858;6.756;2022-09-20T04:31:26;4.00;;;2.70;;
68680;SDS011;55836;49.858;6.756;2022-09-20T04:33:54;4.13;;;2.63;;
68680;SDS011;55836;49.858;6.756;2022-09-20T04:49:38;6.07;;;2.60;;
68680;SDS011;55836;49.858;6.756;2022-09-20T04:52:12;4.93;;;3.00;;
68680;SDS011;55836;49.858;6.756;2022-09-20T05:10:54;7.83;;;3.80;;
68680;SDS011;55836;49.858;6.756;2022-09-20T05:16:03;7.73;;;4.00;;
68680;SDS011;55836;49.858;6.756;2022-09-20T05:29:03;11.63;;;4.33;;
68680;SDS011;55836;49.858;6.756;2022-09-20T05:31:33;8.77;;;3.87;;
68680;SDS011;55836;49.858;6.756;2022-09-20T05:36:55;8.87;;;4.10;;
68680;SDS011;55836;49.858;6.756;2022-09-20T06:00:05;11.40;;;6.17;;
68680;SDS011;55836;49.858;6.756;2022-09-20T06:02:34;11.37;;;5.10;;
68680;SDS011;55836;49.858;6.756;2022-09-20T06:05:07;8.57;;;4.27;;
68680;SDS011;55836;49.858;6.756;2022-09-20T06:10:35;6.37;;;3.97;;
68680;SDS011;55836;49.858;6.756;2022-09-20T06:15:57;7.83;;;4.10;;
68680;SDS011;55836;49.858;6.756;2022-09-20T06:23:22;6.67;;;3.70;;
68680;SDS011;55836;49.858;6.756;2022-09-20T06:25:51;4.30;;;3.83;;
68680;SDS011;55836;49.858;6.756;2022-09-20T06:28:21;6.03;;;3.73;;
68680;SDS011;55836;49.858;6.756;2022-09-20T06:30:52;9.03;;;3.90;;
68680;SDS011;55836;49.858;6.756;2022-09-20T06:33:28;5.07;;;3.93;;
68680;SDS011;55836;49.858;6.756;2022-09-20T06:38:50;6.20;;;3.70;;
68680;SDS011;55836;49.858;6.756;2022-09-20T06:41:38;8.13;;;4.33;;
68680;SDS011;55836;49.858;6.756;2022-09-20T06:44:05;5.27;;;3.60;;
68680;SDS011;55836;49.858;6.756;2022-09-20T06:46:34;6.37;;;3.13;;
68680;SDS011;55836;49.858;6.756;2022-09-20T06:49:01;7.93;;;3.80;;
68680;SDS011;55836;49.858;6.756;2022-09-20T06:51:28;8.07;;;3.53;;
68680;SDS011;55836;49.858;6.756;2022-09-20T06:53:58;3.83;;;3.40;;
68680;SDS011;55836;49.858;6.756;2022-09-20T06:56:26;7.13;;;4.33;;
68680;SDS011;55836;49.858;6.756;2022-09-20T06:58:52;9.77;;;3.97;;
68680;SDS011;55836;49.858;6.756;2022-09-20T07:01:19;5.87;;;3.57;;
68680;SDS011;55836;49.858;6.756;2022-09-20T07:03:45;4.87;;;3.63;;
68680;SDS011;55836;49.858;6.756;2022-09-20T07:06:11;7.93;;;4.70;;
68680;SDS011;55836;49.858;6.756;2022-09-20T07:08:37;7.43;;;4.57;;
68680;SDS011;55836;49.858;6.756;2022-09-20T07:11:09;9.83;;;4.90;;
68680;SDS011;55836;49.858;6.756;2022-09-20T07:13:36;8.27;;;4.20;;
68680;SDS011;55836;49.858;6.756;2022-09-20T07:16:03;9.13;;;4.47;;
68680;SDS011;55836;49.858;6.756;2022-09-20T07:18:29;8.17;;;5.73;;
68680;SDS011;55836;49.858;6.756;2022-09-20T07:20:57;15.80;;;5.50;;
68680;SDS011;55836;49.858;6.756;2022-09-20T07:23:27;9.80;;;5.50;;
68680;SDS011;55836;49.858;6.756;2022-09-20T07:25:56;8.10;;;5.00;;
68680;SDS011;55836;49.858;6.756;2022-09-20T07:28:26;11.70;;;4.97;;
68680;SDS011;55836;49.858;6.756;2022-09-20T07:30:53;13.63;;;4.80;;
68680;SDS011;55836;49.858;6.756;2022-09-20T07:33:19;9.37;;;5.00;;
68680;SDS011;55836;49.858;6.756;2022-09-20T07:35:49;11.03;;;4.60;;
68680;SDS011;55836;49.858;6.756;2022-09-20T07:38:17;7.73;;;5.00;;
68680;SDS011;55836;49.858;6.756;2022-09-20T07:40:43;10.67;;;5.47;;
68680;SDS011;55836;49.858;6.756;2022-09-20T07:43:12;8.70;;;5.00;;
68680;SDS011;55836;49.858;6.756;2022-09-20T07:45:38;10.43;;;5.13;;
68680;SDS011;55836;49.858;6.756;2022-09-20T07:48:05;6.07;;;4.70;;
68680;SDS011;55836;49.858;6.756;2022-09-20T07:50:33;10.67;;;4.80;;
68680;SDS011;55836;49.858;6.756;2022-09-20T07:52:59;11.23;;;4.90;;
68680;SDS011;55836;49.858;6.756;2022-09-20T07:55:27;6.47;;;4.67;;
68680;SDS011;55836;49.858;6.756;2022-09-20T07:57:53;6.73;;;4.80;;
68680;SDS011;55836;49.858;6.756;2022-09-20T08:00:19;10.73;;;4.50;;
68680;SDS011;55836;49.858;6.756;2022-09-20T08:02:45;6.57;;;4.17;;
68680;SDS011;55836;49.858;6.756;2022-09-20T08:05:11;9.10;;;5.27;;
68680;SDS011;55836;49.858;6.756;2022-09-20T08:07:37;9.93;;;5.00;;
68680;SDS011;55836;49.858;6.756;2022-09-20T08:10:04;7.67;;;4.20;;
68680;SDS011;55836;49.858;6.756;2022-09-20T08:12:30;7.23;;;4.00;;
68680;SDS011;55836;49.858;6.756;2022-09-20T08:14:57;6.00;;;4.83;;
68680;SDS011;55836;49.858;6.756;2022-09-20T08:17:23;10.03;;;4.23;;
68680;SDS011;55836;49.858;6.756;2022-09-20T08:19:49;7.40;;;4.40;;
68680;SDS011;55836;49.858;6.756;2022-09-20T08:22:17;9.03;;;4.27;;
68680;SDS011;55836;49.858;6.756;2022-09-20T08:24:43;10.07;;;4.33;;
68680;SDS011;55836;49.858;6.756;2022-09-20T08:27:11;10.77;;;4.03;;
68680;SDS011;55836;49.858;6.756;2022-09-20T08:29:37;8.87;;;3.70;;
68680;SDS011;55836;49.858;6.756;2022-09-20T08:32:04;10.67;;;4.20;;
68680;SDS011;55836;49.858;6.756;2022-09-20T08:34:30;7.17;;;4.40;;
68680;SDS011;55836;49.858;6.756;2022-09-20T08:36:56;4.23;;;3.70;;
68680;SDS011;55836;49.858;6.756;2022-09-20T08:39:22;6.20;;;3.70;;
68680;SDS011;55836;49.858;6.756;2022-09-20T08:41:53;6.17;;;3.93;;
68680;SDS011;55836;49.858;6.756;2022-09-20T08:44:28;9.43;;;3.83;;
68680;SDS011;55836;49.858;6.756;2022-09-20T08:47:17;5.80;;;3.37;;
68680;SDS011;55836;49.858;6.756;2022-09-20T08:49:50;8.27;;;3.93;;
68680;SDS011;55836;49.858;6.756;2022-09-20T08:58:53;8.00;;;3.83;;
68680;SDS011;55836;49.858;6.756;2022-09-20T09:04:37;7.13;;;3.90;;
68680;SDS011;55836;49.858;6.756;2022-09-20T09:07:14;9.83;;;3.47;;
68680;SDS011;55836;49.858;6.756;2022-09-20T09:10:10;9.03;;;3.23;;
68680;SDS011;55836;49.858;6.756;2022-09-20T09:12:40;5.37;;;3.20;;
68680;SDS011;55836;49.858;6.756;2022-09-20T09:18:32;4.80;;;3.30;;
68680;SDS011;55836;49.858;6.756;2022-09-20T09:21:05;7.87;;;3.20;;
68680;SDS011;55836;49.858;6.756;2022-09-20T09:23:38;5.50;;;2.80;;
68680;SDS011;55836;49.858;6.756;2022-09-20T09:26:34;7.40;;;2.87;;
68680;SDS011;55836;49.858;6.756;2022-09-20T09:29:26;5.23;;;3.00;;
68680;SDS011;55836;49.858;6.756;2022-09-20T09:31:52;4.70;;;3.00;;
68680;SDS011;55836;49.858;6.756;2022-09-20T09:34:32;5.00;;;3.00;;
68680;SDS011;55836;49.858;6.756;2022-09-20T09:37:08;8.07;;;3.00;;
68680;SDS011;55836;49.858;6.756;2022-09-20T09:40:16;9.13;;;3.27;;
68680;SDS011;55836;49.858;6.756;2022-09-20T09:42:49;6.90;;;2.90;;
68680;SDS011;55836;49.858;6.756;2022-09-20T09:45:24;5.83;;;2.83;;
68680;SDS011;55836;49.858;6.756;2022-09-20T09:47:51;4.70;;;2.90;;
68680;SDS011;55836;49.858;6.756;2022-09-20T09:50:21;8.97;;;3.30;;
68680;SDS011;55836;49.858;6.756;2022-09-20T09:52:57;7.40;;;2.73;;
68680;SDS011;55836;49.858;6.756;2022-09-20T09:55:24;4.30;;;2.43;;
68680;SDS011;55836;49.858;6.756;2022-09-20T09:58:29;6.33;;;3.10;;
68680;SDS011;55836;49.858;6.756;2022-09-20T10:00:48;4.23;;;2.57;;
68680;SDS011;55836;49.858;6.756;2022-09-20T10:24:52;3.27;;;2.27;;
68680;SDS011;55836;49.858;6.756;2022-09-20T10:27:24;2.10;;;1.90;;
68680;SDS011;55836;49.858;6.756;2022-09-20T10:40:25;2.87;;;1.80;;
68680;SDS011;55836;49.858;6.756;2022-09-20T10:43:15;5.00;;;2.23;;
68680;SDS011;55836;49.858;6.756;2022-09-20T10:45:52;3.80;;;2.07;;
68680;SDS011;55836;49.858;6.756;2022-09-20T10:48:32;3.40;;;1.43;;
68680;SDS011;55836;49.858;6.756;2022-09-20T10:51:05;3.80;;;1.57;;
68680;SDS011;55836;49.858;6.756;2022-09-20T11:06:44;2.70;;;1.30;;
68680;SDS011;55836;49.858;6.756;2022-09-20T11:09:12;1.13;;;0.93;;
68680;SDS011;55836;49.858;6.756;2022-09-20T11:11:51;1.97;;;1.40;;
68680;SDS011;55836;49.858;6.756;2022-09-20T11:14:27;1.83;;;1.43;;
68680;SDS011;55836;49.858;6.756;2022-09-20T11:19:34;1.63;;;1.00;;
68680;SDS011;55836;49.858;6.756;2022-09-20T11:22:05;1.00;;;0.90;;
68680;SDS011;55836;49.858;6.756;2022-09-20T11:24:34;1.13;;;0.80;;
68680;SDS011;55836;49.858;6.756;2022-09-20T11:27:06;1.13;;;0.93;;
68680;SDS011;55836;49.858;6.756;2022-09-20T11:29:36;1.53;;;0.90;;
68680;SDS011;55836;49.858;6.756;2022-09-20T11:32:09;1.40;;;1.00;;
68680;SDS011;55836;49.858;6.756;2022-09-20T11:34:39;2.43;;;1.37;;
68680;SDS011;55836;49.858;6.756;2022-09-20T11:37:07;2.77;;;0.87;;
68680;SDS011;55836;49.858;6.756;2022-09-20T11:39:41;0.73;;;0.73;;
68680;SDS011;55836;49.858;6.756;2022-09-20T11:42:10;2.40;;;1.20;;
68680;SDS011;55836;49.858;6.756;2022-09-20T11:44:39;2.37;;;1.00;;
68680;SDS011;55836;49.858;6.756;2022-09-20T11:47:10;2.10;;;1.10;;
68680;SDS011;55836;49.858;6.756;2022-09-20T11:52:08;1.33;;;1.20;;
68680;SDS011;55836;49.858;6.756;2022-09-20T11:54:50;2.03;;;1.13;;
68680;SDS011;55836;49.858;6.756;2022-09-20T11:57:21;1.87;;;1.37;;
68680;SDS011;55836;49.858;6.756;2022-09-20T11:59:51;4.23;;;1.20;;
68680;SDS011;55836;49.858;6.756;2022-09-20T12:04:52;3.60;;;1.30;;
68680;SDS011;55836;49.858;6.756;2022-09-20T12:07:38;4.00;;;1.20;;
68680;SDS011;55836;49.858;6.756;2022-09-20T12:10:27;1.67;;;0.90;;
68680;SDS011;55836;49.858;6.756;2022-09-20T12:12:55;1.80;;;0.90;;
68680;SDS011;55836;49.858;6.756;2022-09-20T12:26:00;1.83;;;1.10;;
68680;SDS011;55836;49.858;6.756;2022-09-20T12:28:33;3.17;;;1.10;;
68680;SDS011;55836;49.858;6.756;2022-09-20T12:36:32;1.13;;;0.93;;
68680;SDS011;55836;49.858;6.756;2022-09-20T12:46:50;1.83;;;1.40;;
68680;SDS011;55836;49.858;6.756;2022-09-20T12:49:19;1.70;;;1.50;;
68680;SDS011;55836;49.858;6.756;2022-09-20T12:55:25;1.87;;;1.20;;
68680;SDS011;55836;49.858;6.756;2022-09-20T12:58:37;1.60;;;0.90;;
68680;SDS011;55836;49.858;6.756;2022-09-20T13:13:50;1.67;;;1.17;;
68680;SDS011;55836;49.858;6.756;2022-09-20T13:16:24;2.37;;;1.40;;
68680;SDS011;55836;49.858;6.756;2022-09-20T13:21:37;5.90;;;1.23;;
68680;SDS011;55836;49.858;6.756;2022-09-20T13:24:04;1.30;;;1.20;;
68680;SDS011;55836;49.858;6.756;2022-09-20T13:26:32;2.93;;;1.30;;
68680;SDS011;55836;49.858;6.756;2022-09-20T13:28:59;1.80;;;1.10;;
68680;SDS011;55836;49.858;6.756;2022-09-20T13:31:27;3.90;;;1.10;;
68680;SDS011;55836;49.858;6.756;2022-09-20T13:33:53;1.67;;;1.03;;
68680;SDS011;55836;49.858;6.756;2022-09-20T13:36:26;2.23;;;1.40;;
68680;SDS011;55836;49.858;6.756;2022-09-20T13:38:56;3.20;;;1.30;;
68680;SDS011;55836;49.858;6.756;2022-09-20T13:41:23;2.33;;;1.57;;
68680;SDS011;55836;49.858;6.756;2022-09-20T13:43:53;2.50;;;2.00;;
68680;SDS011;55836;49.858;6.756;2022-09-20T13:46:23;1.53;;;1.33;;
68680;SDS011;55836;49.858;6.756;2022-09-20T13:48:56;1.63;;;1.43;;
68680;SDS011;55836;49.858;6.756;2022-09-20T13:51:24;3.77;;;2.17;;
68680;SDS011;55836;49.858;6.756;2022-09-20T13:53:51;2.33;;;1.30;;
68680;SDS011;55836;49.858;6.756;2022-09-20T13:58:43;3.20;;;1.20;;
68680;SDS011;55836;49.858;6.756;2022-09-20T14:03:50;1.30;;;1.20;;
68680;SDS011;55836;49.858;6.756;2022-09-20T14:06:21;2.57;;;1.47;;
68680;SDS011;55836;49.858;6.756;2022-09-20T14:08:51;1.77;;;1.60;;
68680;SDS011;55836;49.858;6.756;2022-09-20T14:11:21;1.97;;;1.77;;
68680;SDS011;55836;49.858;6.756;2022-09-20T14:13:48;2.83;;;1.60;;
68680;SDS011;55836;49.858;6.756;2022-09-20T14:16:19;3.10;;;2.20;;
68680;SDS011;55836;49.858;6.756;2022-09-20T14:18:46;1.60;;;1.40;;
68680;SDS011;55836;49.858;6.756;2022-09-20T14:21:13;4.80;;;1.77;;
68680;SDS011;55836;49.858;6.756;2022-09-20T14:23:49;1.83;;;1.67;;
68680;SDS011;55836;49.858;6.756;2022-09-20T14:28:42;3.60;;;1.60;;
68680;SDS011;55836;49.858;6.756;2022-09-20T14:31:15;4.10;;;1.43;;
68680;SDS011;55836;49.858;6.756;2022-09-20T14:33:43;1.53;;;1.40;;
68680;SDS011;55836;49.858;6.756;2022-09-20T14:36:14;3.83;;;1.63;;
68680;SDS011;55836;49.858;6.756;2022-09-20T14:38:44;3.10;;;1.50;;
68680;SDS011;55836;49.858;6.756;2022-09-20T14:41:11;3.20;;;1.27;;
68680;SDS011;55836;49.858;6.756;2022-09-20T14:43:38;4.17;;;1.60;;
68680;SDS011;55836;49.858;6.756;2022-09-20T14:46:15;3.03;;;1.33;;
68680;SDS011;55836;49.858;6.756;2022-09-20T14:48:42;2.87;;;1.63;;
68680;SDS011;55836;49.858;6.756;2022-09-20T14:53:35;2.57;;;1.27;;
68680;SDS011;55836;49.858;6.756;2022-09-20T14:58:31;5.07;;;1.50;;
68680;SDS011;55836;49.858;6.756;2022-09-20T15:01:01;1.50;;;1.40;;
68680;SDS011;55836;49.858;6.756;2022-09-20T15:03:36;6.10;;;1.47;;
68680;SDS011;55836;49.858;6.756;2022-09-20T15:06:03;2.83;;;1.30;;
68680;SDS011;55836;49.858;6.756;2022-09-20T15:08:29;3.43;;;1.40;;
68680;SDS011;55836;49.858;6.756;2022-09-20T15:10:55;1.67;;;1.50;;
68680;SDS011;55836;49.858;6.756;2022-09-20T15:13:23;2.43;;;1.50;;
68680;SDS011;55836;49.858;6.756;2022-09-20T15:15:50;2.10;;;1.43;;
68680;SDS011;55836;49.858;6.756;2022-09-20T15:18:25;3.40;;;1.60;;
68680;SDS011;55836;49.858;6.756;2022-09-20T15:20:52;4.00;;;1.87;;
68680;SDS011;55836;49.858;6.756;2022-09-20T15:23:19;1.47;;;1.13;;
68680;SDS011;55836;49.858;6.756;2022-09-20T15:25:46;1.40;;;1.30;;
68680;SDS011;55836;49.858;6.756;2022-09-20T15:28:15;3.33;;;1.87;;
68680;SDS011;55836;49.858;6.756;2022-09-20T15:30:44;2.33;;;1.40;;
68680;SDS011;55836;49.858;6.756;2022-09-20T15:33:10;1.93;;;1.30;;
68680;SDS011;55836;49.858;6.756;2022-09-20T15:35:37;1.90;;;1.30;;
68680;SDS011;55836;49.858;6.756;2022-09-20T15:38:03;1.97;;;1.43;;
68680;SDS011;55836;49.858;6.756;2022-09-20T15:40:32;1.50;;;1.40;;
68680;SDS011;55836;49.858;6.756;2022-09-20T15:42:58;1.83;;;1.70;;
68680;SDS011;55836;49.858;6.756;2022-09-20T15:45:25;3.43;;;1.30;;
68680;SDS011;55836;49.858;6.756;2022-09-20T15:47:52;2.50;;;1.83;;
68680;SDS011;55836;49.858;6.756;2022-09-20T15:50:21;4.67;;;2.07;;
68680;SDS011;55836;49.858;6.756;2022-09-20T15:52:48;3.57;;;1.93;;
68680;SDS011;55836;49.858;6.756;2022-09-20T15:55:16;5.77;;;1.90;;
68680;SDS011;55836;49.858;6.756;2022-09-20T15:57:42;2.83;;;1.67;;
68680;SDS011;55836;49.858;6.756;2022-09-20T16:00:08;2.90;;;1.50;;
68680;SDS011;55836;49.858;6.756;2022-09-20T16:02:34;5.50;;;1.20;;
68680;SDS011;55836;49.858;6.756;2022-09-20T16:05:00;2.80;;;1.40;;
68680;SDS011;55836;49.858;6.756;2022-09-20T16:07:27;1.43;;;1.20;;
68680;SDS011;55836;49.858;6.756;2022-09-20T16:09:55;1.93;;;1.73;;
68680;SDS011;55836;49.858;6.756;2022-09-20T16:12:22;1.97;;;1.43;;
68680;SDS011;55836;49.858;6.756;2022-09-20T16:14:48;1.33;;;1.23;;
68680;SDS011;55836;49.858;6.756;2022-09-20T16:17:15;1.70;;;1.30;;
68680;SDS011;55836;49.858;6.756;2022-09-20T16:19:41;3.63;;;1.47;;
68680;SDS011;55836;49.858;6.756;2022-09-20T16:22:09;6.73;;;4.90;;
68680;SDS011;55836;49.858;6.756;2022-09-20T16:24:36;3.47;;;1.40;;
68680;SDS011;55836;49.858;6.756;2022-09-20T16:27:04;3.43;;;2.77;;
68680;SDS011;55836;49.858;6.756;2022-09-20T16:29:31;3.37;;;2.43;;
68680;SDS011;55836;49.858;6.756;2022-09-20T16:31:57;3.27;;;1.40;;
68680;SDS011;55836;49.858;6.756;2022-09-20T16:34:31;3.80;;;1.63;;
68680;SDS011;55836;49.858;6.756;2022-09-20T16:36:59;2.27;;;1.40;;
68680;SDS011;55836;49.858;6.756;2022-09-20T16:39:25;3.07;;;2.00;;
68680;SDS011;55836;49.858;6.756;2022-09-20T16:41:52;2.20;;;1.77;;
68680;SDS011;55836;49.858;6.756;2022-09-20T16:44:18;1.90;;;1.70;;
68680;SDS011;55836;49.858;6.756;2022-09-20T16:46:44;4.10;;;1.93;;
68680;SDS011;55836;49.858;6.756;2022-09-20T16:49:11;4.13;;;1.70;;
68680;SDS011;55836;49.858;6.756;2022-09-20T16:51:38;5.03;;;1.73;;
68680;SDS011;55836;49.858;6.756;2022-09-20T16:54:05;4.10;;;1.57;;
68680;SDS011;55836;49.858;6.756;2022-09-20T16:56:35;4.57;;;2.97;;
68680;SDS011;55836;49.858;6.756;2022-09-20T16:59:02;3.53;;;1.73;;
68680;SDS011;55836;49.858;6.756;2022-09-20T17:01:29;4.57;;;2.50;;
68680;SDS011;55836;49.858;6.756;2022-09-20T17:03:56;1.90;;;1.70;;
68680;SDS011;55836;49.858;6.756;2022-09-20T17:06:22;2.03;;;1.60;;
68680;SDS011;55836;49.858;6.756;2022-09-20T17:08:50;2.33;;;1.30;;
68680;SDS011;55836;49.858;6.756;2022-09-20T17:11:17;3.23;;;1.53;;
68680;SDS011;55836;49.858;6.756;2022-09-20T17:13:47;7.83;;;2.30;;
68680;SDS011;55836;49.858;6.756;2022-09-20T17:16:16;4.63;;;2.27;;
68680;SDS011;55836;49.858;6.756;2022-09-20T17:18:42;3.93;;;1.60;;
68680;SDS011;55836;49.858;6.756;2022-09-20T17:21:09;3.37;;;1.83;;
68680;SDS011;55836;49.858;6.756;2022-09-20T17:23:38;4.57;;;1.80;;
68680;SDS011;55836;49.858;6.756;2022-09-20T17:26:15;2.93;;;1.77;;
68680;SDS011;55836;49.858;6.756;2022-09-20T17:28:42;3.23;;;1.73;;
68680;SDS011;55836;49.858;6.756;2022-09-20T17:31:09;3.40;;;1.60;;
68680;SDS011;55836;49.858;6.756;2022-09-20T17:33:35;2.67;;;1.70;;
68680;SDS011;55836;49.858;6.756;2022-09-20T17:36:02;2.57;;;1.80;;
68680;SDS011;55836;49.858;6.756;2022-09-20T17:38:28;4.70;;;2.53;;
68680;SDS011;55836;49.858;6.756;2022-09-20T17:41:09;6.33;;;1.90;;
68680;SDS011;55836;49.858;6.756;2022-09-20T17:43:38;3.23;;;1.90;;
68680;SDS011;55836;49.858;6.756;2022-09-20T17:48:30;4.60;;;1.93;;
68680;SDS011;55836;49.858;6.756;2022-09-20T17:50:58;9.03;;;2.67;;
68680;SDS011;55836;49.858;6.756;2022-09-20T17:53:25;4.50;;;2.70;;
68680;SDS011;55836;49.858;6.756;2022-09-20T17:55:52;3.37;;;2.17;;
68680;SDS011;55836;49.858;6.756;2022-09-20T17:58:18;6.67;;;2.10;;
68680;SDS011;55836;49.858;6.756;2022-09-20T18:00:44;4.07;;;2.00;;
68680;SDS011;55836;49.858;6.756;2022-09-20T18:03:10;4.97;;;2.13;;
68680;SDS011;55836;49.858;6.756;2022-09-20T18:05:36;6.83;;;2.43;;
68680;SDS011;55836;49.858;6.756;2022-09-20T18:08:02;3.47;;;1.70;;
68680;SDS011;55836;49.858;6.756;2022-09-20T18:10:28;3.30;;;1.70;;
68680;SDS011;55836;49.858;6.756;2022-09-20T18:12:55;3.93;;;2.00;;
68680;SDS011;55836;49.858;6.756;2022-09-20T18:15:21;4.80;;;1.80;;
68680;SDS011;55836;49.858;6.756;2022-09-20T18:17:50;5.17;;;2.03;;
68680;SDS011;55836;49.858;6.756;2022-09-20T18:20:16;5.33;;;2.10;;
68680;SDS011;55836;49.858;6.756;2022-09-20T18:22:42;4.57;;;1.60;;
68680;SDS011;55836;49.858;6.756;2022-09-20T18:25:08;4.83;;;1.53;;
68680;SDS011;55836;49.858;6.756;2022-09-20T18:27:34;5.83;;;2.13;;
68680;SDS011;55836;49.858;6.756;2022-09-20T18:30:02;5.03;;;1.80;;
68680;SDS011;55836;49.858;6.756;2022-09-20T18:32:28;8.73;;;1.90;;
68680;SDS011;55836;49.858;6.756;2022-09-20T18:34:54;4.43;;;2.07;;
68680;SDS011;55836;49.858;6.756;2022-09-20T18:37:20;2.80;;;1.50;;
68680;SDS011;55836;49.858;6.756;2022-09-20T18:39:46;6.87;;;1.83;;
68680;SDS011;55836;49.858;6.756;2022-09-20T18:42:13;2.70;;;1.53;;
68680;SDS011;55836;49.858;6.756;2022-09-20T18:44:39;5.30;;;2.50;;
68680;SDS011;55836;49.858;6.756;2022-09-20T18:47:07;5.97;;;1.67;;
68680;SDS011;55836;49.858;6.756;2022-09-20T18:49:34;3.20;;;1.77;;
68680;SDS011;55836;49.858;6.756;2022-09-20T18:52:00;3.23;;;1.90;;
68680;SDS011;55836;49.858;6.756;2022-09-20T18:54:26;2.63;;;1.80;;
68680;SDS011;55836;49.858;6.756;2022-09-20T18:56:57;5.43;;;1.67;;
68680;SDS011;55836;49.858;6.756;2022-09-20T18:59:24;3.70;;;2.50;;
68680;SDS011;55836;49.858;6.756;2022-09-20T19:12:02;7.83;;;2.07;;
68680;SDS011;55836;49.858;6.756;2022-09-20T19:14:52;3.30;;;1.90;;
68680;SDS011;55836;49.858;6.756;2022-09-20T19:17:22;2.17;;;1.60;;
68680;SDS011;55836;49.858;6.756;2022-09-20T19:19:52;4.70;;;2.03;;
68680;SDS011;55836;49.858;6.756;2022-09-20T19:27:22;3.60;;;1.87;;
68680;SDS011;55836;49.858;6.756;2022-09-20T19:29:49;3.47;;;2.00;;
68680;SDS011;55836;49.858;6.756;2022-09-20T19:32:16;5.23;;;2.00;;
68680;SDS011;55836;49.858;6.756;2022-09-20T19:34:48;5.20;;;2.03;;
68680;SDS011;55836;49.858;6.756;2022-09-20T19:50:20;4.10;;;2.07;;
68680;SDS011;55836;49.858;6.756;2022-09-20T19:52:51;5.07;;;2.10;;
68680;SDS011;55836;49.858;6.756;2022-09-20T19:55:18;2.87;;;1.70;;
68680;SDS011;55836;49.858;6.756;2022-09-20T19:57:44;3.53;;;1.70;;
68680;SDS011;55836;49.858;6.756;2022-09-20T20:00:12;2.23;;;2.03;;
68680;SDS011;55836;49.858;6.756;2022-09-20T20:02:39;4.73;;;1.77;;
68680;SDS011;55836;49.858;6.756;2022-09-20T20:05:06;4.03;;;2.10;;
68680;SDS011;55836;49.858;6.756;2022-09-20T20:07:37;2.87;;;1.77;;
68680;SDS011;55836;49.858;6.756;2022-09-20T20:12:47;3.30;;;1.70;;
68680;SDS011;55836;49.858;6.756;2022-09-20T20:15:25;6.30;;;2.10;;
68680;SDS011;55836;49.858;6.756;2022-09-20T20:18:05;3.10;;;1.60;;
68680;SDS011;55836;49.858;6.756;2022-09-20T20:25:43;6.20;;;2.20;;
68680;SDS011;55836;49.858;6.756;2022-09-20T20:28:13;3.43;;;2.00;;
68680;SDS011;55836;49.858;6.756;2022-09-20T20:30:40;2.00;;;1.67;;
68680;SDS011;55836;49.858;6.756;2022-09-20T20:33:06;5.17;;;1.93;;
68680;SDS011;55836;49.858;6.756;2022-09-20T20:35:32;3.50;;;2.23;;
68680;SDS011;55836;49.858;6.756;2022-09-20T20:37:58;3.93;;;1.80;;
68680;SDS011;55836;49.858;6.756;2022-09-20T20:40:24;5.87;;;2.83;;
68680;SDS011;55836;49.858;6.756;2022-09-20T20:42:54;4.93;;;2.17;;
68680;SDS011;55836;49.858;6.756;2022-09-20T20:45:26;5.20;;;2.23;;
68680;SDS011;55836;49.858;6.756;2022-09-20T20:47:55;4.63;;;1.80;;
68680;SDS011;55836;49.858;6.756;2022-09-20T20:50:22;4.87;;;2.10;;
68680;SDS011;55836;49.858;6.756;2022-09-20T20:52:52;7.57;;;2.07;;
68680;SDS011;55836;49.858;6.756;2022-09-20T20:55:19;3.80;;;2.20;;
68680;SDS011;55836;49.858;6.756;2022-09-20T20:57:54;3.67;;;1.73;;
68680;SDS011;55836;49.858;6.756;2022-09-20T21:00:22;6.93;;;2.53;;
68680;SDS011;55836;49.858;6.756;2022-09-20T21:02:54;4.70;;;2.17;;
68680;SDS011;55836;49.858;6.756;2022-09-20T21:05:20;4.93;;;2.10;;
68680;SDS011;55836;49.858;6.756;2022-09-20T21:07:51;4.63;;;2.20;;
68680;SDS011;55836;49.858;6.756;2022-09-20T21:10:17;3.43;;;2.00;;
68680;SDS011;55836;49.858;6.756;2022-09-20T21:12:44;4.43;;;1.93;;